sensor_id;sensor_type;location;lat;lon;timestamp;temperature;humidity
21759;DHT22;11041;50.854;20.580;2024-02-26T00:01:01;4.90;99.90
21759;DHT22;11041;50.854;20.580;2024-02-26T00:03:48;4.90;99.90
21759;DHT22;11041;50.854;20.580;2024-02-26T00:06:14;5.00;99.90
21759;DHT22;11041;50.854;20.580;2024-02-26T00:08:40;4.90;99.90
21759;DHT22;11041;50.854;20.580;2024-02-26T00:11:07;4.90;99.90
21759;DHT22;11041;50.854;20.580;2024-02-26T00:13:33;4.80;99.90
21759;DHT22;11041;50.854;20.580;2024-02-26T00:16:00;4.80;99.90
21759;DHT22;11041;50.854;20.580;2024-02-26T00:18:26;4.80;99.90
21759;DHT22;11041;50.854;20.580;2024-02-26T00:20:52;4.70;99.90
21759;DHT22;11041;50.854;20.580;2024-02-26T00:23:19;4.70;99.90
21759;DHT22;11041;50.854;20.580;2024-02-26T00:25:46;4.70;99.90
21759;DHT22;11041;50.854;20.580;2024-02-26T00:28:13;4.50;99.90
21759;DHT22;11041;50.854;20.580;2024-02-26T00:30:39;4.50;99.90
21759;DHT22;11041;50.854;20.580;2024-02-26T00:33:06;4.50;99.90
21759;DHT22;11041;50.854;20.580;2024-02-26T00:35:32;4.40;99.90
21759;DHT22;11041;50.854;20.580;2024-02-26T00:37:59;4.50;99.90
21759;DHT22;11041;50.854;20.580;2024-02-26T00:40:26;4.50;99.90
21759;DHT22;11041;50.854;20.580;2024-02-26T00:42:53;4.40;99.90
21759;DHT22;11041;50.854;20.580;2024-02-26T00:45:19;4.50;99.90
21759;DHT22;11041;50.854;20.580;2024-02-26T00:47:46;4.50;99.90
21759;DHT22;11041;50.854;20.580;2024-02-26T00:50:14;4.60;99.90
21759;DHT22;11041;50.854;20.580;2024-02-26T00:52:41;4.60;99.90
21759;DHT22;11041;50.854;20.580;2024-02-26T00:55:07;4.70;99.90
21759;DHT22;11041;50.854;20.580;2024-02-26T00:57:34;4.80;99.90
21759;DHT22;11041;50.854;20.580;2024-02-26T01:00:01;4.90;99.90
21759;DHT22;11041;50.854;20.580;2024-02-26T01:02:27;4.90;99.90
21759;DHT22;11041;50.854;20.580;2024-02-26T01:04:54;4.90;99.90
21759;DHT22;11041;50.854;20.580;2024-02-26T01:07:20;4.90;99.90
21759;DHT22;11041;50.854;20.580;2024-02-26T01:09:46;4.90;99.90
21759;DHT22;11041;50.854;20.580;2024-02-26T01:12:13;4.90;99.90
21759;DHT22;11041;50.854;20.580;2024-02-26T01:14:40;4.90;99.90
21759;DHT22;11041;50.854;20.580;2024-02-26T01:17:06;4.90;99.90
21759;DHT22;11041;50.854;20.580;2024-02-26T01:19:33;4.90;99.90
21759;DHT22;11041;50.854;20.580;2024-02-26T01:21:59;4.90;99.90
21759;DHT22;11041;50.854;20.580;2024-02-26T01:24:29;4.80;99.90
21759;DHT22;11041;50.854;20.580;2024-02-26T01:26:55;4.70;99.90
21759;DHT22;11041;50.854;20.580;2024-02-26T01:29:22;4.70;99.90
21759;DHT22;11041;50.854;20.580;2024-02-26T01:31:48;4.70;99.90
21759;DHT22;11041;50.854;20.580;2024-02-26T01:34:14;4.80;99.90
21759;DHT22;11041;50.854;20.580;2024-02-26T01:36:41;4.80;99.90
21759;DHT22;11041;50.854;20.580;2024-02-26T01:39:07;4.80;99.90
21759;DHT22;11041;50.854;20.580;2024-02-26T01:41:34;4.90;99.90
21759;DHT22;11041;50.854;20.580;2024-02-26T01:44:00;4.90;99.90
21759;DHT22;11041;50.854;20.580;2024-02-26T01:46:27;4.90;99.90
21759;DHT22;11041;50.854;20.580;2024-02-26T01:48:54;4.90;99.90
21759;DHT22;11041;50.854;20.580;2024-02-26T01:51:21;4.80;99.90
21759;DHT22;11041;50.854;20.580;2024-02-26T01:53:48;4.80;99.90
21759;DHT22;11041;50.854;20.580;2024-02-26T01:56:17;4.70;99.90
21759;DHT22;11041;50.854;20.580;2024-02-26T01:58:45;4.60;99.90
21759;DHT22;11041;50.854;20.580;2024-02-26T02:01:13;4.50;99.90
21759;DHT22;11041;50.854;20.580;2024-02-26T02:03:42;4.50;99.90
21759;DHT22;11041;50.854;20.580;2024-02-26T02:06:09;4.50;99.90
21759;DHT22;11041;50.854;20.580;2024-02-26T02:08:37;4.50;99.90
21759;DHT22;11041;50.854;20.580;2024-02-26T02:11:06;4.40;99.90
21759;DHT22;11041;50.854;20.580;2024-02-26T02:13:32;4.40;99.90
21759;DHT22;11041;50.854;20.580;2024-02-26T02:15:59;4.40;99.90
21759;DHT22;11041;50.854;20.580;2024-02-26T02:18:25;4.30;99.90
21759;DHT22;11041;50.854;20.580;2024-02-26T02:20:53;4.30;99.90
21759;DHT22;11041;50.854;20.580;2024-02-26T02:23:23;4.30;99.90
21759;DHT22;11041;50.854;20.580;2024-02-26T02:25:49;4.20;99.90
21759;DHT22;11041;50.854;20.580;2024-02-26T02:28:16;4.20;99.90
21759;DHT22;11041;50.854;20.580;2024-02-26T02:30:43;4.00;99.90
21759;DHT22;11041;50.854;20.580;2024-02-26T02:33:09;3.90;99.90
21759;DHT22;11041;50.854;20.580;2024-02-26T02:35:39;3.80;99.90
21759;DHT22;11041;50.854;20.580;2024-02-26T02:38:06;3.90;99.90
21759;DHT22;11041;50.854;20.580;2024-02-26T02:40:33;3.90;99.90
21759;DHT22;11041;50.854;20.580;2024-02-26T02:43:01;3.90;99.90
21759;DHT22;11041;50.854;20.580;2024-02-26T02:45:31;3.90;99.90
21759;DHT22;11041;50.854;20.580;2024-02-26T02:47:57;4.00;99.90
21759;DHT22;11041;50.854;20.580;2024-02-26T02:50:23;4.00;99.90
21759;DHT22;11041;50.854;20.580;2024-02-26T02:52:51;4.00;99.90
21759;DHT22;11041;50.854;20.580;2024-02-26T02:55:18;4.00;99.90
21759;DHT22;11041;50.854;20.580;2024-02-26T02:57:44;4.00;99.90
21759;DHT22;11041;50.854;20.580;2024-02-26T03:00:12;4.00;99.90
21759;DHT22;11041;50.854;20.580;2024-02-26T03:02:39;4.10;99.90
21759;DHT22;11041;50.854;20.580;2024-02-26T03:05:05;4.00;99.90
21759;DHT22;11041;50.854;20.580;2024-02-26T03:07:32;3.90;99.90
21759;DHT22;11041;50.854;20.580;2024-02-26T03:10:00;3.90;99.90
21759;DHT22;11041;50.854;20.580;2024-02-26T03:12:26;3.90;99.90
21759;DHT22;11041;50.854;20.580;2024-02-26T03:14:54;3.80;99.90
21759;DHT22;11041;50.854;20.580;2024-02-26T03:17:20;3.80;99.90
21759;DHT22;11041;50.854;20.580;2024-02-26T03:19:47;3.80;99.90
21759;DHT22;11041;50.854;20.580;2024-02-26T03:22:19;3.80;99.90
21759;DHT22;11041;50.854;20.580;2024-02-26T03:24:47;3.80;99.90
21759;DHT22;11041;50.854;20.580;2024-02-26T03:27:14;3.80;99.90
21759;DHT22;11041;50.854;20.580;2024-02-26T03:29:41;3.80;99.90
21759;DHT22;11041;50.854;20.580;2024-02-26T03:32:07;3.80;99.90
21759;DHT22;11041;50.854;20.580;2024-02-26T03:34:35;3.70;99.90
21759;DHT22;11041;50.854;20.580;2024-02-26T03:37:03;3.80;99.90
21759;DHT22;11041;50.854;20.580;2024-02-26T03:39:29;3.70;99.90
21759;DHT22;11041;50.854;20.580;2024-02-26T03:41:59;3.70;99.90
21759;DHT22;11041;50.854;20.580;2024-02-26T03:44:25;3.70;99.90
21759;DHT22;11041;50.854;20.580;2024-02-26T03:46:51;3.70;99.90
21759;DHT22;11041;50.854;20.580;2024-02-26T03:49:19;3.60;99.90
21759;DHT22;11041;50.854;20.580;2024-02-26T03:51:46;3.50;99.90
21759;DHT22;11041;50.854;20.580;2024-02-26T03:54:15;3.50;99.90
21759;DHT22;11041;50.854;20.580;2024-02-26T03:56:41;3.40;99.90
21759;DHT22;11041;50.854;20.580;2024-02-26T03:59:08;3.50;99.90
21759;DHT22;11041;50.854;20.580;2024-02-26T04:01:44;3.50;99.90
21759;DHT22;11041;50.854;20.580;2024-02-26T04:04:13;3.40;99.90
21759;DHT22;11041;50.854;20.580;2024-02-26T04:06:48;3.30;99.90
21759;DHT22;11041;50.854;20.580;2024-02-26T04:09:18;3.30;99.90
21759;DHT22;11041;50.854;20.580;2024-02-26T04:11:49;3.30;99.90
21759;DHT22;11041;50.854;20.580;2024-02-26T04:14:19;3.20;99.90
21759;DHT22;11041;50.854;20.580;2024-02-26T04:16:50;3.20;99.90
21759;DHT22;11041;50.854;20.580;2024-02-26T04:19:20;3.20;99.90
21759;DHT22;11041;50.854;20.580;2024-02-26T04:21:47;3.10;99.90
21759;DHT22;11041;50.854;20.580;2024-02-26T04:24:19;3.20;99.90
21759;DHT22;11041;50.854;20.580;2024-02-26T04:26:47;3.20;99.90
21759;DHT22;11041;50.854;20.580;2024-02-26T04:29:16;3.20;99.90
21759;DHT22;11041;50.854;20.580;2024-02-26T04:31:48;3.20;99.90
21759;DHT22;11041;50.854;20.580;2024-02-26T04:34:19;3.20;99.90
21759;DHT22;11041;50.854;20.580;2024-02-26T04:36:49;3.20;99.90
21759;DHT22;11041;50.854;20.580;2024-02-26T04:39:17;3.30;99.90
21759;DHT22;11041;50.854;20.580;2024-02-26T04:41:48;3.20;99.90
21759;DHT22;11041;50.854;20.580;2024-02-26T04:44:16;3.10;99.90
21759;DHT22;11041;50.854;20.580;2024-02-26T04:46:50;3.20;99.90
21759;DHT22;11041;50.854;20.580;2024-02-26T04:49:20;3.10;99.90
21759;DHT22;11041;50.854;20.580;2024-02-26T04:51:49;3.10;99.90
21759;DHT22;11041;50.854;20.580;2024-02-26T04:54:18;3.30;99.90
21759;DHT22;11041;50.854;20.580;2024-02-26T04:56:45;3.50;99.90
21759;DHT22;11041;50.854;20.580;2024-02-26T04:59:14;3.70;99.90
21759;DHT22;11041;50.854;20.580;2024-02-26T05:01:40;3.80;99.90
21759;DHT22;11041;50.854;20.580;2024-02-26T05:04:10;4.00;99.90
21759;DHT22;11041;50.854;20.580;2024-02-26T05:06:37;4.20;99.90
21759;DHT22;11041;50.854;20.580;2024-02-26T05:09:04;4.40;99.90
21759;DHT22;11041;50.854;20.580;2024-02-26T05:11:32;4.50;99.90
21759;DHT22;11041;50.854;20.580;2024-02-26T05:13:58;4.70;99.90
21759;DHT22;11041;50.854;20.580;2024-02-26T05:16:29;5.00;99.90
21759;DHT22;11041;50.854;20.580;2024-02-26T05:19:01;5.10;99.90
21759;DHT22;11041;50.854;20.580;2024-02-26T05:21:29;5.20;99.90
21759;DHT22;11041;50.854;20.580;2024-02-26T05:23:56;5.30;99.90
21759;DHT22;11041;50.854;20.580;2024-02-26T05:26:23;5.40;99.90
21759;DHT22;11041;50.854;20.580;2024-02-26T05:28:52;5.50;99.90
21759;DHT22;11041;50.854;20.580;2024-02-26T05:31:20;5.60;99.90
21759;DHT22;11041;50.854;20.580;2024-02-26T05:33:48;5.70;99.90
21759;DHT22;11041;50.854;20.580;2024-02-26T05:36:20;5.90;99.90
21759;DHT22;11041;50.854;20.580;2024-02-26T05:38:50;6.00;99.90
21759;DHT22;11041;50.854;20.580;2024-02-26T05:41:18;6.20;99.90
21759;DHT22;11041;50.854;20.580;2024-02-26T05:43:53;6.30;99.90
21759;DHT22;11041;50.854;20.580;2024-02-26T05:46:24;6.50;99.90
21759;DHT22;11041;50.854;20.580;2024-02-26T05:48:53;6.60;99.90
21759;DHT22;11041;50.854;20.580;2024-02-26T05:51:19;6.70;99.90
21759;DHT22;11041;50.854;20.580;2024-02-26T05:53:47;6.80;99.90
21759;DHT22;11041;50.854;20.580;2024-02-26T05:56:22;6.90;99.90
21759;DHT22;11041;50.854;20.580;2024-02-26T05:58:51;7.00;99.90
21759;DHT22;11041;50.854;20.580;2024-02-26T06:01:20;7.10;99.90
21759;DHT22;11041;50.854;20.580;2024-02-26T06:03:49;7.20;99.90
21759;DHT22;11041;50.854;20.580;2024-02-26T06:06:16;7.30;99.90
21759;DHT22;11041;50.854;20.580;2024-02-26T06:08:45;7.40;99.90
21759;DHT22;11041;50.854;20.580;2024-02-26T06:11:11;7.50;99.90
21759;DHT22;11041;50.854;20.580;2024-02-26T06:13:41;7.50;99.90
21759;DHT22;11041;50.854;20.580;2024-02-26T06:16:11;7.50;99.90
21759;DHT22;11041;50.854;20.580;2024-02-26T06:18:37;7.60;99.90
21759;DHT22;11041;50.854;20.580;2024-02-26T06:21:03;7.70;99.90
21759;DHT22;11041;50.854;20.580;2024-02-26T06:23:36;7.70;99.90
21759;DHT22;11041;50.854;20.580;2024-02-26T06:26:04;7.80;99.90
21759;DHT22;11041;50.854;20.580;2024-02-26T06:28:31;7.80;99.90
21759;DHT22;11041;50.854;20.580;2024-02-26T06:31:01;7.90;99.90
21759;DHT22;11041;50.854;20.580;2024-02-26T06:33:29;7.90;99.90
21759;DHT22;11041;50.854;20.580;2024-02-26T06:35:55;7.90;99.90
21759;DHT22;11041;50.854;20.580;2024-02-26T06:38:23;8.00;99.90
21759;DHT22;11041;50.854;20.580;2024-02-26T06:40:50;8.00;99.90
21759;DHT22;11041;50.854;20.580;2024-02-26T06:43:17;8.10;99.90
21759;DHT22;11041;50.854;20.580;2024-02-26T06:45:43;8.20;99.90
21759;DHT22;11041;50.854;20.580;2024-02-26T06:48:11;8.20;99.90
21759;DHT22;11041;50.854;20.580;2024-02-26T06:50:38;8.20;99.90
21759;DHT22;11041;50.854;20.580;2024-02-26T06:53:04;8.30;99.90
21759;DHT22;11041;50.854;20.580;2024-02-26T06:55:37;8.40;99.90
21759;DHT22;11041;50.854;20.580;2024-02-26T06:58:06;8.50;99.90
21759;DHT22;11041;50.854;20.580;2024-02-26T07:00:33;8.40;99.90
21759;DHT22;11041;50.854;20.580;2024-02-26T07:03:01;8.40;99.90
21759;DHT22;11041;50.854;20.580;2024-02-26T07:05:29;8.40;99.90
21759;DHT22;11041;50.854;20.580;2024-02-26T07:07:59;8.50;99.90
21759;DHT22;11041;50.854;20.580;2024-02-26T07:10:27;8.50;99.90
21759;DHT22;11041;50.854;20.580;2024-02-26T07:12:59;8.60;99.90
21759;DHT22;11041;50.854;20.580;2024-02-26T07:15:27;8.50;99.90
21759;DHT22;11041;50.854;20.580;2024-02-26T07:17:56;8.60;99.90
21759;DHT22;11041;50.854;20.580;2024-02-26T07:20:30;8.60;99.90
21759;DHT22;11041;50.854;20.580;2024-02-26T07:22:58;8.70;99.90
21759;DHT22;11041;50.854;20.580;2024-02-26T07:25:26;8.80;99.90
21759;DHT22;11041;50.854;20.580;2024-02-26T07:27:53;8.80;99.90
21759;DHT22;11041;50.854;20.580;2024-02-26T07:30:21;8.90;99.90
21759;DHT22;11041;50.854;20.580;2024-02-26T07:32:54;8.80;99.90
21759;DHT22;11041;50.854;20.580;2024-02-26T07:35:20;8.90;99.90
21759;DHT22;11041;50.854;20.580;2024-02-26T07:37:48;9.00;99.90
21759;DHT22;11041;50.854;20.580;2024-02-26T07:40:18;9.10;99.90
21759;DHT22;11041;50.854;20.580;2024-02-26T07:42:45;9.20;99.90
21759;DHT22;11041;50.854;20.580;2024-02-26T07:45:12;9.20;99.90
21759;DHT22;11041;50.854;20.580;2024-02-26T07:47:41;9.20;99.90
21759;DHT22;11041;50.854;20.580;2024-02-26T07:50:09;9.30;99.90
21759;DHT22;11041;50.854;20.580;2024-02-26T07:52:39;9.30;99.90
21759;DHT22;11041;50.854;20.580;2024-02-26T07:55:08;9.40;99.90
21759;DHT22;11041;50.854;20.580;2024-02-26T07:57:35;9.50;99.90
21759;DHT22;11041;50.854;20.580;2024-02-26T08:00:06;9.60;99.90
21759;DHT22;11041;50.854;20.580;2024-02-26T08:02:36;9.60;99.90
21759;DHT22;11041;50.854;20.580;2024-02-26T08:05:02;9.70;99.90
21759;DHT22;11041;50.854;20.580;2024-02-26T08:07:29;9.80;99.90
21759;DHT22;11041;50.854;20.580;2024-02-26T08:09:56;9.90;99.90
21759;DHT22;11041;50.854;20.580;2024-02-26T08:12:22;9.90;99.90
21759;DHT22;11041;50.854;20.580;2024-02-26T08:14:49;9.90;99.90
21759;DHT22;11041;50.854;20.580;2024-02-26T08:17:16;10.00;99.90
21759;DHT22;11041;50.854;20.580;2024-02-26T08:19:45;10.10;99.90
21759;DHT22;11041;50.854;20.580;2024-02-26T08:22:13;10.10;99.90
21759;DHT22;11041;50.854;20.580;2024-02-26T08:24:42;10.10;99.90
21759;DHT22;11041;50.854;20.580;2024-02-26T08:27:11;10.10;99.90
21759;DHT22;11041;50.854;20.580;2024-02-26T08:29:37;10.10;99.90
21759;DHT22;11041;50.854;20.580;2024-02-26T08:32:05;10.10;99.90
21759;DHT22;11041;50.854;20.580;2024-02-26T08:34:35;10.00;99.90
21759;DHT22;11041;50.854;20.580;2024-02-26T08:37:02;10.00;99.90
21759;DHT22;11041;50.854;20.580;2024-02-26T08:39:29;10.00;99.90
21759;DHT22;11041;50.854;20.580;2024-02-26T08:41:55;10.00;99.90
21759;DHT22;11041;50.854;20.580;2024-02-26T08:44:21;10.00;99.90
21759;DHT22;11041;50.854;20.580;2024-02-26T08:46:48;10.10;99.90
21759;DHT22;11041;50.854;20.580;2024-02-26T08:49:16;10.20;99.90
21759;DHT22;11041;50.854;20.580;2024-02-26T08:51:43;10.30;99.90
21759;DHT22;11041;50.854;20.580;2024-02-26T08:54:11;10.30;99.90
21759;DHT22;11041;50.854;20.580;2024-02-26T08:56:40;10.30;99.90
21759;DHT22;11041;50.854;20.580;2024-02-26T08:59:07;10.40;99.90
21759;DHT22;11041;50.854;20.580;2024-02-26T09:01:35;10.40;99.90
21759;DHT22;11041;50.854;20.580;2024-02-26T09:04:02;10.40;99.90
21759;DHT22;11041;50.854;20.580;2024-02-26T09:06:31;10.40;99.90
21759;DHT22;11041;50.854;20.580;2024-02-26T09:09:00;10.40;99.90
21759;DHT22;11041;50.854;20.580;2024-02-26T09:11:29;10.50;99.90
21759;DHT22;11041;50.854;20.580;2024-02-26T09:13:55;10.60;99.90
21759;DHT22;11041;50.854;20.580;2024-02-26T09:16:22;10.70;99.90
21759;DHT22;11041;50.854;20.580;2024-02-26T09:18:50;10.90;99.90
21759;DHT22;11041;50.854;20.580;2024-02-26T09:21:17;11.00;99.90
21759;DHT22;11041;50.854;20.580;2024-02-26T09:23:50;11.10;99.90
21759;DHT22;11041;50.854;20.580;2024-02-26T09:26:17;11.20;99.90
21759;DHT22;11041;50.854;20.580;2024-02-26T09:28:47;11.40;99.90
21759;DHT22;11041;50.854;20.580;2024-02-26T09:31:15;11.40;99.90
21759;DHT22;11041;50.854;20.580;2024-02-26T09:33:42;11.50;99.90
21759;DHT22;11041;50.854;20.580;2024-02-26T09:36:09;11.60;99.90
21759;DHT22;11041;50.854;20.580;2024-02-26T09:38:37;11.70;99.90
21759;DHT22;11041;50.854;20.580;2024-02-26T09:41:05;11.80;99.90
21759;DHT22;11041;50.854;20.580;2024-02-26T09:43:35;11.90;99.90
21759;DHT22;11041;50.854;20.580;2024-02-26T09:46:09;11.90;99.90
21759;DHT22;11041;50.854;20.580;2024-02-26T09:48:39;11.90;99.90
21759;DHT22;11041;50.854;20.580;2024-02-26T09:51:11;12.00;99.90
21759;DHT22;11041;50.854;20.580;2024-02-26T09:53:40;12.10;99.90
21759;DHT22;11041;50.854;20.580;2024-02-26T09:56:15;12.10;99.90
21759;DHT22;11041;50.854;20.580;2024-02-26T09:58:44;12.20;99.90
21759;DHT22;11041;50.854;20.580;2024-02-26T10:01:18;12.20;99.90
21759;DHT22;11041;50.854;20.580;2024-02-26T10:03:46;12.30;99.90
21759;DHT22;11041;50.854;20.580;2024-02-26T10:06:18;12.40;99.90
21759;DHT22;11041;50.854;20.580;2024-02-26T10:08:45;12.40;99.90
21759;DHT22;11041;50.854;20.580;2024-02-26T10:11:13;12.40;99.90
21759;DHT22;11041;50.854;20.580;2024-02-26T10:13:41;12.40;99.90
21759;DHT22;11041;50.854;20.580;2024-02-26T10:16:08;12.40;99.90
21759;DHT22;11041;50.854;20.580;2024-02-26T10:18:47;12.40;99.90
21759;DHT22;11041;50.854;20.580;2024-02-26T10:21:20;12.40;99.90
21759;DHT22;11041;50.854;20.580;2024-02-26T10:23:50;12.30;99.90
21759;DHT22;11041;50.854;20.580;2024-02-26T10:26:18;12.30;99.90
21759;DHT22;11041;50.854;20.580;2024-02-26T10:28:45;12.20;99.90
21759;DHT22;11041;50.854;20.580;2024-02-26T10:31:14;12.20;99.90
21759;DHT22;11041;50.854;20.580;2024-02-26T10:33:44;12.10;99.90
21759;DHT22;11041;50.854;20.580;2024-02-26T10:36:11;12.20;99.90
21759;DHT22;11041;50.854;20.580;2024-02-26T10:38:38;12.30;99.90
21759;DHT22;11041;50.854;20.580;2024-02-26T10:41:13;12.40;99.90
21759;DHT22;11041;50.854;20.580;2024-02-26T10:43:42;12.40;99.90
21759;DHT22;11041;50.854;20.580;2024-02-26T10:46:13;12.40;99.90
21759;DHT22;11041;50.854;20.580;2024-02-26T10:48:43;12.40;99.90
21759;DHT22;11041;50.854;20.580;2024-02-26T10:51:27;12.40;99.90
21759;DHT22;11041;50.854;20.580;2024-02-26T10:53:59;12.20;99.90
21759;DHT22;11041;50.854;20.580;2024-02-26T10:56:34;12.30;99.90
21759;DHT22;11041;50.854;20.580;2024-02-26T10:59:04;12.30;99.90
21759;DHT22;11041;50.854;20.580;2024-02-26T11:01:35;12.30;99.90
21759;DHT22;11041;50.854;20.580;2024-02-26T11:04:04;12.30;99.90
21759;DHT22;11041;50.854;20.580;2024-02-26T11:06:34;12.40;99.90
21759;DHT22;11041;50.854;20.580;2024-02-26T11:09:05;12.40;99.90
21759;DHT22;11041;50.854;20.580;2024-02-26T11:11:36;12.40;99.90
21759;DHT22;11041;50.854;20.580;2024-02-26T11:14:03;12.50;99.90
21759;DHT22;11041;50.854;20.580;2024-02-26T11:16:31;12.40;99.90
21759;DHT22;11041;50.854;20.580;2024-02-26T11:19:02;12.40;99.90
21759;DHT22;11041;50.854;20.580;2024-02-26T11:21:29;12.40;99.90
21759;DHT22;11041;50.854;20.580;2024-02-26T11:24:06;12.50;99.90
21759;DHT22;11041;50.854;20.580;2024-02-26T11:26:39;12.50;99.90
21759;DHT22;11041;50.854;20.580;2024-02-26T11:29:12;12.50;99.90
21759;DHT22;11041;50.854;20.580;2024-02-26T11:31:42;12.60;99.90
21759;DHT22;11041;50.854;20.580;2024-02-26T11:34:09;12.70;99.90
21759;DHT22;11041;50.854;20.580;2024-02-26T11:36:39;12.90;99.90
21759;DHT22;11041;50.854;20.580;2024-02-26T11:39:06;12.90;99.90
21759;DHT22;11041;50.854;20.580;2024-02-26T11:41:36;13.00;99.90
21759;DHT22;11041;50.854;20.580;2024-02-26T11:44:03;13.10;99.90
21759;DHT22;11041;50.854;20.580;2024-02-26T11:46:40;13.10;99.90
21759;DHT22;11041;50.854;20.580;2024-02-26T11:51:55;13.30;99.90
21759;DHT22;11041;50.854;20.580;2024-02-26T12:02:40;13.50;99.90
21759;DHT22;11041;50.854;20.580;2024-02-26T12:07:46;13.70;99.90
21759;DHT22;11041;50.854;20.580;2024-02-26T12:10:16;13.70;99.90
21759;DHT22;11041;50.854;20.580;2024-02-26T12:15:30;14.40;99.90
21759;DHT22;11041;50.854;20.580;2024-02-26T12:18:03;14.50;99.90
21759;DHT22;11041;50.854;20.580;2024-02-26T12:20:31;14.60;99.90
21759;DHT22;11041;50.854;20.580;2024-02-26T12:22:58;14.70;99.90
21759;DHT22;11041;50.854;20.580;2024-02-26T12:25:28;14.80;99.90
21759;DHT22;11041;50.854;20.580;2024-02-26T12:27:57;14.90;99.90
21759;DHT22;11041;50.854;20.580;2024-02-26T12:30:25;15.20;99.90
21759;DHT22;11041;50.854;20.580;2024-02-26T12:32:56;15.40;99.90
21759;DHT22;11041;50.854;20.580;2024-02-26T12:35:28;15.30;99.90
21759;DHT22;11041;50.854;20.580;2024-02-26T12:37:58;15.20;99.90
21759;DHT22;11041;50.854;20.580;2024-02-26T12:40:26;15.30;99.90
21759;DHT22;11041;50.854;20.580;2024-02-26T12:42:54;15.40;99.90
21759;DHT22;11041;50.854;20.580;2024-02-26T12:45:25;15.50;99.90
21759;DHT22;11041;50.854;20.580;2024-02-26T12:47:56;15.40;99.90
21759;DHT22;11041;50.854;20.580;2024-02-26T12:50:24;15.40;99.90
21759;DHT22;11041;50.854;20.580;2024-02-26T12:52:52;15.40;99.90
21759;DHT22;11041;50.854;20.580;2024-02-26T12:55:20;15.40;99.90
21759;DHT22;11041;50.854;20.580;2024-02-26T12:57:50;15.50;99.90
21759;DHT22;11041;50.854;20.580;2024-02-26T13:00:26;15.60;99.90
21759;DHT22;11041;50.854;20.580;2024-02-26T13:02:55;15.70;99.90
21759;DHT22;11041;50.854;20.580;2024-02-26T13:05:23;15.70;99.90
21759;DHT22;11041;50.854;20.580;2024-02-26T13:07:53;15.70;99.90
21759;DHT22;11041;50.854;20.580;2024-02-26T13:10:20;15.70;99.90
21759;DHT22;11041;50.854;20.580;2024-02-26T13:12:48;15.70;99.90
21759;DHT22;11041;50.854;20.580;2024-02-26T13:15:20;15.60;99.90
21759;DHT22;11041;50.854;20.580;2024-02-26T13:17:48;15.50;99.90
21759;DHT22;11041;50.854;20.580;2024-02-26T13:20:29;15.50;99.90
21759;DHT22;11041;50.854;20.580;2024-02-26T13:23:08;15.40;99.90
21759;DHT22;11041;50.854;20.580;2024-02-26T13:25:37;15.50;99.90
21759;DHT22;11041;50.854;20.580;2024-02-26T13:28:17;15.60;99.90
21759;DHT22;11041;50.854;20.580;2024-02-26T13:30:51;15.60;99.90
21759;DHT22;11041;50.854;20.580;2024-02-26T13:33:19;15.80;99.90
21759;DHT22;11041;50.854;20.580;2024-02-26T13:35:49;15.70;99.90
21759;DHT22;11041;50.854;20.580;2024-02-26T13:38:16;15.60;99.90
21759;DHT22;11041;50.854;20.580;2024-02-26T13:40:45;15.60;99.90
21759;DHT22;11041;50.854;20.580;2024-02-26T13:43:12;15.50;99.90
21759;DHT22;11041;50.854;20.580;2024-02-26T13:45:39;15.40;99.90
21759;DHT22;11041;50.854;20.580;2024-02-26T13:48:10;15.30;99.90
21759;DHT22;11041;50.854;20.580;2024-02-26T13:50:38;15.40;99.90
21759;DHT22;11041;50.854;20.580;2024-02-26T13:53:07;15.30;99.90
21759;DHT22;11041;50.854;20.580;2024-02-26T13:55:35;15.40;99.90
21759;DHT22;11041;50.854;20.580;2024-02-26T13:58:02;15.30;99.90
21759;DHT22;11041;50.854;20.580;2024-02-26T14:00:29;15.40;99.90
21759;DHT22;11041;50.854;20.580;2024-02-26T14:03:01;15.40;99.90
21759;DHT22;11041;50.854;20.580;2024-02-26T14:05:28;15.20;99.90
21759;DHT22;11041;50.854;20.580;2024-02-26T14:07:56;15.10;99.90
21759;DHT22;11041;50.854;20.580;2024-02-26T14:10:23;15.10;99.90
21759;DHT22;11041;50.854;20.580;2024-02-26T14:12:50;15.10;99.90
21759;DHT22;11041;50.854;20.580;2024-02-26T14:15:17;15.00;99.90
21759;DHT22;11041;50.854;20.580;2024-02-26T14:17:43;15.00;99.90
21759;DHT22;11041;50.854;20.580;2024-02-26T14:20:10;15.00;99.90
21759;DHT22;11041;50.854;20.580;2024-02-26T14:22:37;14.90;99.90
21759;DHT22;11041;50.854;20.580;2024-02-26T14:25:03;14.80;99.90
21759;DHT22;11041;50.854;20.580;2024-02-26T14:27:30;14.90;99.90
21759;DHT22;11041;50.854;20.580;2024-02-26T14:29:56;14.80;99.90
21759;DHT22;11041;50.854;20.580;2024-02-26T14:32:23;14.80;99.90
21759;DHT22;11041;50.854;20.580;2024-02-26T14:34:49;14.80;99.90
21759;DHT22;11041;50.854;20.580;2024-02-26T14:37:16;14.70;99.90
21759;DHT22;11041;50.854;20.580;2024-02-26T14:39:42;14.70;99.90
21759;DHT22;11041;50.854;20.580;2024-02-26T14:42:09;14.60;99.90
21759;DHT22;11041;50.854;20.580;2024-02-26T14:44:35;14.40;99.90
21759;DHT22;11041;50.854;20.580;2024-02-26T14:47:02;14.40;99.90
21759;DHT22;11041;50.854;20.580;2024-02-26T14:49:29;14.40;99.90
21759;DHT22;11041;50.854;20.580;2024-02-26T14:51:57;14.40;99.90
21759;DHT22;11041;50.854;20.580;2024-02-26T14:54:24;14.30;99.90
21759;DHT22;11041;50.854;20.580;2024-02-26T14:56:50;14.10;99.90
21759;DHT22;11041;50.854;20.580;2024-02-26T14:59:18;14.10;99.90
21759;DHT22;11041;50.854;20.580;2024-02-26T15:01:45;14.10;99.90
21759;DHT22;11041;50.854;20.580;2024-02-26T15:04:12;14.00;99.90
21759;DHT22;11041;50.854;20.580;2024-02-26T15:06:39;13.90;99.90
21759;DHT22;11041;50.854;20.580;2024-02-26T15:09:06;13.90;99.90
21759;DHT22;11041;50.854;20.580;2024-02-26T15:11:33;13.80;99.90
21759;DHT22;11041;50.854;20.580;2024-02-26T15:14:03;13.80;99.90
21759;DHT22;11041;50.854;20.580;2024-02-26T15:16:30;13.80;99.90
21759;DHT22;11041;50.854;20.580;2024-02-26T15:18:56;13.80;99.90
21759;DHT22;11041;50.854;20.580;2024-02-26T15:21:23;13.80;99.90
21759;DHT22;11041;50.854;20.580;2024-02-26T15:23:50;13.70;99.90
21759;DHT22;11041;50.854;20.580;2024-02-26T15:26:17;13.70;99.90
21759;DHT22;11041;50.854;20.580;2024-02-26T15:28:44;13.70;99.90
21759;DHT22;11041;50.854;20.580;2024-02-26T15:31:11;13.70;99.90
21759;DHT22;11041;50.854;20.580;2024-02-26T15:33:37;13.60;99.90
21759;DHT22;11041;50.854;20.580;2024-02-26T15:36:04;13.50;99.90
21759;DHT22;11041;50.854;20.580;2024-02-26T15:38:30;13.50;99.90
21759;DHT22;11041;50.854;20.580;2024-02-26T15:40:57;13.40;99.90
21759;DHT22;11041;50.854;20.580;2024-02-26T15:43:24;13.40;99.90
21759;DHT22;11041;50.854;20.580;2024-02-26T15:45:51;13.40;99.90
21759;DHT22;11041;50.854;20.580;2024-02-26T15:48:18;13.30;99.90